sensor_id;sensor_type;location;lat;lon;timestamp;P1;durP1;ratioP1;P2;durP2;ratioP2
51266;SDS011;37338;47.426;19.204;2024-03-17T00:02:22;9.77;;;6.67;;
51266;SDS011;37338;47.426;19.204;2024-03-17T00:04:48;9.47;;;6.33;;
51266;SDS011;37338;47.426;19.204;2024-03-17T00:07:13;6.57;;;4.60;;
51266;SDS011;37338;47.426;19.204;2024-03-17T00:09:39;7.80;;;4.43;;
51266;SDS011;37338;47.426;19.204;2024-03-17T00:12:05;6.83;;;4.67;;
51266;SDS011;37338;47.426;19.204;2024-03-17T00:14:31;7.20;;;4.00;;
51266;SDS011;37338;47.426;19.204;2024-03-17T00:16:56;5.20;;;4.10;;
51266;SDS011;37338;47.426;19.204;2024-03-17T00:19:23;7.47;;;4.20;;
51266;SDS011;37338;47.426;19.204;2024-03-17T00:21:48;7.15;;;4.40;;
51266;SDS011;37338;47.426;19.204;2024-03-17T00:24:15;4.97;;;3.13;;
51266;SDS011;37338;47.426;19.204;2024-03-17T00:26:41;3.90;;;2.93;;
51266;SDS011;37338;47.426;19.204;2024-03-17T00:29:06;4.32;;;2.80;;
51266;SDS011;37338;47.426;19.204;2024-03-17T00:31:31;5.97;;;1.90;;
51266;SDS011;37338;47.426;19.204;2024-03-17T00:33:57;5.07;;;1.47;;
51266;SDS011;37338;47.426;19.204;2024-03-17T00:36:22;3.17;;;1.00;;
51266;SDS011;37338;47.426;19.204;2024-03-17T00:38:48;4.07;;;1.13;;
51266;SDS011;37338;47.426;19.204;2024-03-17T00:41:13;1.00;;;0.57;;
51266;SDS011;37338;47.426;19.204;2024-03-17T00:43:39;1.20;;;0.37;;
51266;SDS011;37338;47.426;19.204;2024-03-17T00:46:04;0.90;;;0.40;;
51266;SDS011;37338;47.426;19.204;2024-03-17T00:48:30;0.93;;;0.47;;
51266;SDS011;37338;47.426;19.204;2024-03-17T00:50:56;1.43;;;0.23;;
51266;SDS011;37338;47.426;19.204;2024-03-17T00:53:22;1.97;;;0.67;;
51266;SDS011;37338;47.426;19.204;2024-03-17T00:55:51;0.57;;;0.33;;
51266;SDS011;37338;47.426;19.204;2024-03-17T00:58:20;0.60;;;0.30;;
51266;SDS011;37338;47.426;19.204;2024-03-17T01:00:46;1.03;;;0.30;;
51266;SDS011;37338;47.426;19.204;2024-03-17T01:03:12;1.93;;;0.50;;
51266;SDS011;37338;47.426;19.204;2024-03-17T01:05:38;1.63;;;0.40;;
51266;SDS011;37338;47.426;19.204;2024-03-17T01:08:07;0.87;;;0.30;;
51266;SDS011;37338;47.426;19.204;2024-03-17T01:10:33;0.83;;;0.60;;
51266;SDS011;37338;47.426;19.204;2024-03-17T01:12:59;2.87;;;0.50;;
51266;SDS011;37338;47.426;19.204;2024-03-17T01:15:24;2.30;;;0.20;;
51266;SDS011;37338;47.426;19.204;2024-03-17T01:17:49;0.53;;;0.20;;
51266;SDS011;37338;47.426;19.204;2024-03-17T01:20:15;1.63;;;0.40;;
51266;SDS011;37338;47.426;19.204;2024-03-17T01:22:41;0.50;;;0.30;;
51266;SDS011;37338;47.426;19.204;2024-03-17T01:25:06;0.80;;;0.20;;
51266;SDS011;37338;47.426;19.204;2024-03-17T01:27:33;0.40;;;0.30;;
51266;SDS011;37338;47.426;19.204;2024-03-17T01:29:59;0.77;;;0.30;;
51266;SDS011;37338;47.426;19.204;2024-03-17T01:32:24;2.03;;;0.30;;
51266;SDS011;37338;47.426;19.204;2024-03-17T01:34:49;1.80;;;0.30;;
51266;SDS011;37338;47.426;19.204;2024-03-17T01:37:16;0.90;;;0.40;;
51266;SDS011;37338;47.426;19.204;2024-03-17T01:39:41;1.27;;;0.77;;
51266;SDS011;37338;47.426;19.204;2024-03-17T01:42:06;0.97;;;0.47;;
51266;SDS011;37338;47.426;19.204;2024-03-17T01:44:32;1.27;;;0.60;;
51266;SDS011;37338;47.426;19.204;2024-03-17T01:46:57;1.83;;;0.77;;
51266;SDS011;37338;47.426;19.204;2024-03-17T01:49:23;1.10;;;0.60;;
51266;SDS011;37338;47.426;19.204;2024-03-17T01:51:49;1.23;;;0.60;;
51266;SDS011;37338;47.426;19.204;2024-03-17T01:54:15;2.27;;;0.60;;
51266;SDS011;37338;47.426;19.204;2024-03-17T01:56:41;4.73;;;0.53;;
51266;SDS011;37338;47.426;19.204;2024-03-17T01:59:08;2.10;;;0.60;;
51266;SDS011;37338;47.426;19.204;2024-03-17T02:01:34;3.80;;;0.53;;
51266;SDS011;37338;47.426;19.204;2024-03-17T02:04:00;3.13;;;0.70;;
51266;SDS011;37338;47.426;19.204;2024-03-17T02:06:26;1.20;;;0.60;;
51266;SDS011;37338;47.426;19.204;2024-03-17T02:08:52;0.73;;;0.63;;
51266;SDS011;37338;47.426;19.204;2024-03-17T02:13:51;1.40;;;0.90;;
51266;SDS011;37338;47.426;19.204;2024-03-17T02:16:17;0.93;;;0.70;;
51266;SDS011;37338;47.426;19.204;2024-03-17T02:18:44;1.40;;;0.60;;
51266;SDS011;37338;47.426;19.204;2024-03-17T02:21:09;1.40;;;1.00;;
51266;SDS011;37338;47.426;19.204;2024-03-17T02:23:35;1.43;;;1.20;;
51266;SDS011;37338;47.426;19.204;2024-03-17T02:26:00;1.53;;;1.23;;
51266;SDS011;37338;47.426;19.204;2024-03-17T02:28:25;1.67;;;1.37;;
51266;SDS011;37338;47.426;19.204;2024-03-17T02:30:50;1.63;;;1.17;;
51266;SDS011;37338;47.426;19.204;2024-03-17T02:33:16;2.83;;;0.90;;
51266;SDS011;37338;47.426;19.204;2024-03-17T02:35:41;4.03;;;1.13;;
51266;SDS011;37338;47.426;19.204;2024-03-17T02:38:06;2.70;;;1.53;;
51266;SDS011;37338;47.426;19.204;2024-03-17T02:40:36;4.63;;;2.17;;
51266;SDS011;37338;47.426;19.204;2024-03-17T02:43:02;4.57;;;1.70;;
51266;SDS011;37338;47.426;19.204;2024-03-17T02:45:27;2.17;;;1.20;;
51266;SDS011;37338;47.426;19.204;2024-03-17T02:47:52;4.40;;;1.57;;
51266;SDS011;37338;47.426;19.204;2024-03-17T02:50:18;2.73;;;1.80;;
51266;SDS011;37338;47.426;19.204;2024-03-17T02:52:43;5.83;;;2.10;;
51266;SDS011;37338;47.426;19.204;2024-03-17T02:55:09;3.13;;;1.43;;
51266;SDS011;37338;47.426;19.204;2024-03-17T02:57:34;1.97;;;1.27;;
51266;SDS011;37338;47.426;19.204;2024-03-17T03:00:00;1.80;;;1.37;;
51266;SDS011;37338;47.426;19.204;2024-03-17T03:02:25;1.47;;;1.37;;
51266;SDS011;37338;47.426;19.204;2024-03-17T03:04:50;2.03;;;1.27;;
51266;SDS011;37338;47.426;19.204;2024-03-17T03:07:16;3.53;;;1.20;;
51266;SDS011;37338;47.426;19.204;2024-03-17T03:09:41;2.03;;;1.30;;
51266;SDS011;37338;47.426;19.204;2024-03-17T03:12:07;1.40;;;1.27;;
51266;SDS011;37338;47.426;19.204;2024-03-17T03:14:32;1.50;;;1.40;;
51266;SDS011;37338;47.426;19.204;2024-03-17T03:16:58;1.63;;;1.37;;
51266;SDS011;37338;47.426;19.204;2024-03-17T03:19:23;2.53;;;1.20;;
51266;SDS011;37338;47.426;19.204;2024-03-17T03:21:49;2.77;;;1.40;;
51266;SDS011;37338;47.426;19.204;2024-03-17T03:24:14;1.70;;;1.00;;
51266;SDS011;37338;47.426;19.204;2024-03-17T03:26:40;3.77;;;1.30;;
51266;SDS011;37338;47.426;19.204;2024-03-17T03:29:06;2.13;;;1.57;;
51266;SDS011;37338;47.426;19.204;2024-03-17T03:31:32;1.53;;;1.40;;
51266;SDS011;37338;47.426;19.204;2024-03-17T03:33:57;1.83;;;1.67;;
51266;SDS011;37338;47.426;19.204;2024-03-17T03:36:26;5.07;;;1.53;;
51266;SDS011;37338;47.426;19.204;2024-03-17T03:38:51;1.80;;;1.63;;
51266;SDS011;37338;47.426;19.204;2024-03-17T03:41:16;3.90;;;1.47;;
51266;SDS011;37338;47.426;19.204;2024-03-17T03:43:42;2.73;;;1.70;;
51266;SDS011;37338;47.426;19.204;2024-03-17T03:46:08;1.27;;;1.13;;
51266;SDS011;37338;47.426;19.204;2024-03-17T03:48:33;2.70;;;1.20;;
51266;SDS011;37338;47.426;19.204;2024-03-17T03:50:59;2.73;;;1.90;;
51266;SDS011;37338;47.426;19.204;2024-03-17T03:53:28;2.03;;;1.33;;
51266;SDS011;37338;47.426;19.204;2024-03-17T03:55:54;1.43;;;1.10;;
51266;SDS011;37338;47.426;19.204;2024-03-17T03:58:19;1.27;;;0.93;;
51266;SDS011;37338;47.426;19.204;2024-03-17T04:00:45;1.23;;;0.90;;
51266;SDS011;37338;47.426;19.204;2024-03-17T04:03:11;2.47;;;1.40;;
51266;SDS011;37338;47.426;19.204;2024-03-17T04:05:36;1.60;;;1.37;;
51266;SDS011;37338;47.426;19.204;2024-03-17T04:08:02;8.00;;;1.10;;
51266;SDS011;37338;47.426;19.204;2024-03-17T04:10:27;1.50;;;1.20;;
51266;SDS011;37338;47.426;19.204;2024-03-17T04:12:53;1.67;;;1.30;;
51266;SDS011;37338;47.426;19.204;2024-03-17T04:15:18;1.30;;;1.07;;
51266;SDS011;37338;47.426;19.204;2024-03-17T04:17:44;2.10;;;1.37;;
51266;SDS011;37338;47.426;19.204;2024-03-17T04:20:09;1.47;;;1.07;;
51266;SDS011;37338;47.426;19.204;2024-03-17T04:22:38;2.53;;;1.37;;
51266;SDS011;37338;47.426;19.204;2024-03-17T04:25:08;2.03;;;1.17;;
51266;SDS011;37338;47.426;19.204;2024-03-17T04:27:34;2.97;;;1.60;;
51266;SDS011;37338;47.426;19.204;2024-03-17T04:29:59;1.73;;;1.50;;
51266;SDS011;37338;47.426;19.204;2024-03-17T04:32:25;1.90;;;1.57;;
51266;SDS011;37338;47.426;19.204;2024-03-17T04:34:53;1.20;;;1.10;;
51266;SDS011;37338;47.426;19.204;2024-03-17T04:37:19;2.50;;;1.53;;
51266;SDS011;37338;47.426;19.204;2024-03-17T04:39:45;1.97;;;1.37;;
51266;SDS011;37338;47.426;19.204;2024-03-17T04:42:11;1.73;;;1.30;;
51266;SDS011;37338;47.426;19.204;2024-03-17T04:44:39;1.40;;;1.20;;
51266;SDS011;37338;47.426;19.204;2024-03-17T04:47:05;2.97;;;1.13;;
51266;SDS011;37338;47.426;19.204;2024-03-17T04:49:37;1.63;;;1.10;;
51266;SDS011;37338;47.426;19.204;2024-03-17T04:52:06;1.60;;;0.97;;
51266;SDS011;37338;47.426;19.204;2024-03-17T04:54:32;1.40;;;1.20;;
51266;SDS011;37338;47.426;19.204;2024-03-17T04:56:58;5.33;;;1.30;;
51266;SDS011;37338;47.426;19.204;2024-03-17T04:59:24;0.87;;;0.80;;
51266;SDS011;37338;47.426;19.204;2024-03-17T05:01:49;1.87;;;0.93;;
51266;SDS011;37338;47.426;19.204;2024-03-17T05:04:14;1.10;;;0.90;;
51266;SDS011;37338;47.426;19.204;2024-03-17T05:06:40;2.90;;;1.20;;
51266;SDS011;37338;47.426;19.204;2024-03-17T05:09:07;2.50;;;1.20;;
51266;SDS011;37338;47.426;19.204;2024-03-17T05:11:32;4.03;;;1.40;;
51266;SDS011;37338;47.426;19.204;2024-03-17T05:14:00;1.43;;;0.87;;
51266;SDS011;37338;47.426;19.204;2024-03-17T05:16:25;1.77;;;1.10;;
51266;SDS011;37338;47.426;19.204;2024-03-17T05:18:51;1.03;;;0.87;;
51266;SDS011;37338;47.426;19.204;2024-03-17T05:21:16;2.10;;;1.00;;
51266;SDS011;37338;47.426;19.204;2024-03-17T05:23:41;3.53;;;1.30;;
51266;SDS011;37338;47.426;19.204;2024-03-17T05:26:07;2.13;;;1.33;;
51266;SDS011;37338;47.426;19.204;2024-03-17T05:28:32;2.57;;;0.77;;
51266;SDS011;37338;47.426;19.204;2024-03-17T05:30:58;2.37;;;1.23;;
51266;SDS011;37338;47.426;19.204;2024-03-17T05:33:24;3.20;;;1.30;;
51266;SDS011;37338;47.426;19.204;2024-03-17T05:38:17;1.80;;;0.90;;
51266;SDS011;37338;47.426;19.204;2024-03-17T05:40:58;4.53;;;1.27;;
51266;SDS011;37338;47.426;19.204;2024-03-17T05:43:25;4.97;;;1.20;;
51266;SDS011;37338;47.426;19.204;2024-03-17T05:45:54;2.53;;;1.00;;
51266;SDS011;37338;47.426;19.204;2024-03-17T05:48:22;1.90;;;1.10;;
51266;SDS011;37338;47.426;19.204;2024-03-17T05:50:47;2.30;;;1.30;;
51266;SDS011;37338;47.426;19.204;2024-03-17T05:53:13;4.73;;;1.33;;
51266;SDS011;37338;47.426;19.204;2024-03-17T05:55:38;3.07;;;1.40;;
51266;SDS011;37338;47.426;19.204;2024-03-17T05:58:06;2.17;;;1.50;;
51266;SDS011;37338;47.426;19.204;2024-03-17T06:00:34;2.37;;;1.33;;
51266;SDS011;37338;47.426;19.204;2024-03-17T06:03:02;3.70;;;0.97;;
51266;SDS011;37338;47.426;19.204;2024-03-17T06:05:31;2.07;;;1.10;;
51266;SDS011;37338;47.426;19.204;2024-03-17T06:08:00;2.10;;;1.20;;
51266;SDS011;37338;47.426;19.204;2024-03-17T06:10:27;1.30;;;1.00;;
51266;SDS011;37338;47.426;19.204;2024-03-17T06:12:52;2.83;;;1.00;;
51266;SDS011;37338;47.426;19.204;2024-03-17T06:15:18;4.10;;;0.80;;
51266;SDS011;37338;47.426;19.204;2024-03-17T06:17:45;3.17;;;1.10;;
51266;SDS011;37338;47.426;19.204;2024-03-17T06:20:11;3.30;;;1.48;;
51266;SDS011;37338;47.426;19.204;2024-03-17T06:22:38;7.20;;;1.50;;
51266;SDS011;37338;47.426;19.204;2024-03-17T06:25:03;1.30;;;0.75;;
51266;SDS011;37338;47.426;19.204;2024-03-17T06:27:29;2.95;;;1.45;;
51266;SDS011;37338;47.426;19.204;2024-03-17T06:29:56;4.38;;;1.40;;
51266;SDS011;37338;47.426;19.204;2024-03-17T06:32:21;2.00;;;0.90;;
51266;SDS011;37338;47.426;19.204;2024-03-17T06:34:46;3.95;;;1.80;;
51266;SDS011;37338;47.426;19.204;2024-03-17T06:37:12;2.20;;;0.60;;
51266;SDS011;37338;47.426;19.204;2024-03-17T06:39:37;2.92;;;0.80;;
51266;SDS011;37338;47.426;19.204;2024-03-17T06:42:02;1.70;;;1.00;;
51266;SDS011;37338;47.426;19.204;2024-03-17T06:44:28;5.53;;;1.27;;
51266;SDS011;37338;47.426;19.204;2024-03-17T06:46:55;1.20;;;0.90;;
51266;SDS011;37338;47.426;19.204;2024-03-17T06:49:20;3.43;;;1.03;;
51266;SDS011;37338;47.426;19.204;2024-03-17T06:51:46;1.47;;;1.00;;
51266;SDS011;37338;47.426;19.204;2024-03-17T06:54:11;2.40;;;1.00;;
51266;SDS011;37338;47.426;19.204;2024-03-17T06:56:36;2.93;;;1.00;;
51266;SDS011;37338;47.426;19.204;2024-03-17T06:59:02;1.63;;;0.80;;
51266;SDS011;37338;47.426;19.204;2024-03-17T07:01:28;1.60;;;0.90;;
51266;SDS011;37338;47.426;19.204;2024-03-17T07:03:54;1.90;;;0.93;;
51266;SDS011;37338;47.426;19.204;2024-03-17T07:06:19;3.03;;;1.10;;
51266;SDS011;37338;47.426;19.204;2024-03-17T07:08:44;2.47;;;0.87;;
51266;SDS011;37338;47.426;19.204;2024-03-17T07:11:10;1.63;;;0.70;;
51266;SDS011;37338;47.426;19.204;2024-03-17T07:13:36;2.47;;;1.03;;
51266;SDS011;37338;47.426;19.204;2024-03-17T07:16:02;2.27;;;1.20;;
51266;SDS011;37338;47.426;19.204;2024-03-17T07:18:30;8.30;;;2.50;;
51266;SDS011;37338;47.426;19.204;2024-03-17T07:20:57;3.65;;;1.27;;
51266;SDS011;37338;47.426;19.204;2024-03-17T07:23:23;10.23;;;1.52;;
51266;SDS011;37338;47.426;19.204;2024-03-17T07:25:52;5.23;;;1.30;;
51266;SDS011;37338;47.426;19.204;2024-03-17T07:28:21;4.30;;;0.97;;
51266;SDS011;37338;47.426;19.204;2024-03-17T07:30:50;5.13;;;0.90;;
51266;SDS011;37338;47.426;19.204;2024-03-17T07:33:16;4.60;;;1.02;;
51266;SDS011;37338;47.426;19.204;2024-03-17T07:38:14;5.10;;;0.70;;
51266;SDS011;37338;47.426;19.204;2024-03-17T07:40:39;3.28;;;1.38;;
51266;SDS011;37338;47.426;19.204;2024-03-17T07:43:04;2.07;;;0.57;;
51266;SDS011;37338;47.426;19.204;2024-03-17T07:45:30;2.37;;;0.60;;
51266;SDS011;37338;47.426;19.204;2024-03-17T07:47:55;3.93;;;1.00;;
51266;SDS011;37338;47.426;19.204;2024-03-17T07:50:20;1.60;;;0.50;;
51266;SDS011;37338;47.426;19.204;2024-03-17T07:52:46;3.80;;;1.03;;
51266;SDS011;37338;47.426;19.204;2024-03-17T07:55:11;3.60;;;0.80;;
51266;SDS011;37338;47.426;19.204;2024-03-17T07:57:36;3.77;;;1.03;;
51266;SDS011;37338;47.426;19.204;2024-03-17T08:00:02;1.58;;;0.80;;
51266;SDS011;37338;47.426;19.204;2024-03-17T08:02:28;1.30;;;1.00;;
51266;SDS011;37338;47.426;19.204;2024-03-17T08:04:54;1.97;;;0.83;;
51266;SDS011;37338;47.426;19.204;2024-03-17T08:07:19;3.93;;;0.83;;
51266;SDS011;37338;47.426;19.204;2024-03-17T08:09:44;3.00;;;0.80;;
51266;SDS011;37338;47.426;19.204;2024-03-17T08:12:10;2.55;;;0.85;;
51266;SDS011;37338;47.426;19.204;2024-03-17T08:14:35;4.70;;;0.88;;
51266;SDS011;37338;47.426;19.204;2024-03-17T08:17:01;1.93;;;0.80;;
51266;SDS011;37338;47.426;19.204;2024-03-17T08:19:26;4.57;;;0.70;;
51266;SDS011;37338;47.426;19.204;2024-03-17T08:21:51;3.20;;;0.70;;
51266;SDS011;37338;47.426;19.204;2024-03-17T08:24:17;3.40;;;0.60;;
51266;SDS011;37338;47.426;19.204;2024-03-17T08:26:42;3.77;;;0.90;;
51266;SDS011;37338;47.426;19.204;2024-03-17T08:29:10;2.47;;;0.80;;
51266;SDS011;37338;47.426;19.204;2024-03-17T08:31:35;2.13;;;0.68;;
51266;SDS011;37338;47.426;19.204;2024-03-17T08:34:02;1.70;;;0.63;;
51266;SDS011;37338;47.426;19.204;2024-03-17T08:36:27;2.57;;;0.77;;
51266;SDS011;37338;47.426;19.204;2024-03-17T08:38:53;1.90;;;0.40;;
51266;SDS011;37338;47.426;19.204;2024-03-17T08:41:20;1.50;;;0.38;;
51266;SDS011;37338;47.426;19.204;2024-03-17T08:43:45;1.13;;;0.65;;
51266;SDS011;37338;47.426;19.204;2024-03-17T08:46:11;2.75;;;0.82;;
51266;SDS011;37338;47.426;19.204;2024-03-17T08:48:40;3.60;;;0.60;;
51266;SDS011;37338;47.426;19.204;2024-03-17T08:51:07;1.83;;;0.60;;
51266;SDS011;37338;47.426;19.204;2024-03-17T08:53:34;2.70;;;0.50;;
51266;SDS011;37338;47.426;19.204;2024-03-17T08:56:00;2.03;;;0.50;;
51266;SDS011;37338;47.426;19.204;2024-03-17T08:58:26;7.30;;;0.50;;
51266;SDS011;37338;47.426;19.204;2024-03-17T09:00:51;1.92;;;0.50;;
51266;SDS011;37338;47.426;19.204;2024-03-17T09:03:17;4.10;;;0.60;;
51266;SDS011;37338;47.426;19.204;2024-03-17T09:05:43;2.90;;;0.68;;
51266;SDS011;37338;47.426;19.204;2024-03-17T09:08:15;3.08;;;0.85;;
51266;SDS011;37338;47.426;19.204;2024-03-17T09:10:43;5.47;;;0.77;;
51266;SDS011;37338;47.426;19.204;2024-03-17T09:13:15;6.85;;;1.92;;
51266;SDS011;37338;47.426;19.204;2024-03-17T09:15:51;2.20;;;0.75;;
51266;SDS011;37338;47.426;19.204;2024-03-17T09:18:18;3.17;;;0.70;;
51266;SDS011;37338;47.426;19.204;2024-03-17T09:20:43;4.75;;;0.50;;
51266;SDS011;37338;47.426;19.204;2024-03-17T09:23:08;5.63;;;1.08;;
51266;SDS011;37338;47.426;19.204;2024-03-17T09:25:33;4.18;;;1.05;;
51266;SDS011;37338;47.426;19.204;2024-03-17T09:27:59;1.60;;;0.52;;
51266;SDS011;37338;47.426;19.204;2024-03-17T09:30:24;3.05;;;0.68;;
51266;SDS011;37338;47.426;19.204;2024-03-17T09:32:49;5.30;;;0.85;;
51266;SDS011;37338;47.426;19.204;2024-03-17T09:35:15;4.40;;;1.20;;
51266;SDS011;37338;47.426;19.204;2024-03-17T09:37:40;2.17;;;0.88;;
51266;SDS011;37338;47.426;19.204;2024-03-17T09:40:05;3.33;;;0.73;;
51266;SDS011;37338;47.426;19.204;2024-03-17T09:42:40;2.72;;;0.57;;
51266;SDS011;37338;47.426;19.204;2024-03-17T09:45:06;3.28;;;0.98;;
51266;SDS011;37338;47.426;19.204;2024-03-17T09:47:31;2.40;;;0.80;;
51266;SDS011;37338;47.426;19.204;2024-03-17T09:49:57;5.47;;;0.68;;
51266;SDS011;37338;47.426;19.204;2024-03-17T09:52:23;3.22;;;0.75;;
51266;SDS011;37338;47.426;19.204;2024-03-17T09:54:53;3.25;;;0.93;;
51266;SDS011;37338;47.426;19.204;2024-03-17T09:57:21;3.95;;;0.90;;
51266;SDS011;37338;47.426;19.204;2024-03-17T09:59:50;1.98;;;0.50;;
51266;SDS011;37338;47.426;19.204;2024-03-17T10:02:17;3.13;;;0.70;;
51266;SDS011;37338;47.426;19.204;2024-03-17T10:04:45;6.22;;;1.05;;
51266;SDS011;37338;47.426;19.204;2024-03-17T10:07:11;3.85;;;0.38;;
51266;SDS011;37338;47.426;19.204;2024-03-17T10:09:36;5.90;;;0.45;;
51266;SDS011;37338;47.426;19.204;2024-03-17T10:12:02;4.15;;;0.50;;
51266;SDS011;37338;47.426;19.204;2024-03-17T10:14:27;3.28;;;1.02;;
51266;SDS011;37338;47.426;19.204;2024-03-17T10:16:53;4.55;;;1.02;;
51266;SDS011;37338;47.426;19.204;2024-03-17T10:19:22;6.60;;;1.23;;
51266;SDS011;37338;47.426;19.204;2024-03-17T10:21:49;5.90;;;1.05;;
51266;SDS011;37338;47.426;19.204;2024-03-17T10:26:48;4.05;;;0.98;;
51266;SDS011;37338;47.426;19.204;2024-03-17T10:32:04;4.55;;;1.58;;
51266;SDS011;37338;47.426;19.204;2024-03-17T10:34:38;1.88;;;0.65;;
51266;SDS011;37338;47.426;19.204;2024-03-17T10:37:11;2.42;;;0.88;;
51266;SDS011;37338;47.426;19.204;2024-03-17T10:39:42;2.38;;;0.57;;
51266;SDS011;37338;47.426;19.204;2024-03-17T10:42:09;5.68;;;1.20;;
51266;SDS011;37338;47.426;19.204;2024-03-17T10:44:35;1.08;;;0.60;;
51266;SDS011;37338;47.426;19.204;2024-03-17T10:47:04;2.30;;;0.63;;
51266;SDS011;37338;47.426;19.204;2024-03-17T10:49:37;1.98;;;0.50;;
51266;SDS011;37338;47.426;19.204;2024-03-17T10:52:06;6.55;;;0.60;;
51266;SDS011;37338;47.426;19.204;2024-03-17T10:54:33;2.80;;;1.00;;
51266;SDS011;37338;47.426;19.204;2024-03-17T10:59:40;3.20;;;0.57;;
51266;SDS011;37338;47.426;19.204;2024-03-17T11:02:17;2.25;;;0.50;;
51266;SDS011;37338;47.426;19.204;2024-03-17T11:04:48;5.32;;;0.65;;
51266;SDS011;37338;47.426;19.204;2024-03-17T11:07:17;1.52;;;0.50;;
51266;SDS011;37338;47.426;19.204;2024-03-17T11:09:44;4.50;;;1.42;;
51266;SDS011;37338;47.426;19.204;2024-03-17T11:17:43;2.75;;;0.60;;
51266;SDS011;37338;47.426;19.204;2024-03-17T11:20:15;3.45;;;0.90;;
51266;SDS011;37338;47.426;19.204;2024-03-17T11:22:43;2.35;;;0.80;;
51266;SDS011;37338;47.426;19.204;2024-03-17T11:33:27;3.55;;;0.68;;
51266;SDS011;37338;47.426;19.204;2024-03-17T11:41:36;3.50;;;1.48;;
51266;SDS011;37338;47.426;19.204;2024-03-17T11:44:13;3.40;;;0.52;;
51266;SDS011;37338;47.426;19.204;2024-03-17T11:46:39;3.33;;;0.70;;
51266;SDS011;37338;47.426;19.204;2024-03-17T11:49:05;2.35;;;0.40;;
51266;SDS011;37338;47.426;19.204;2024-03-17T11:51:32;3.85;;;0.80;;
51266;SDS011;37338;47.426;19.204;2024-03-17T11:53:59;3.08;;;1.15;;
51266;SDS011;37338;47.426;19.204;2024-03-17T11:56:25;3.17;;;0.77;;
51266;SDS011;37338;47.426;19.204;2024-03-17T11:59:04;1.48;;;0.60;;
51266;SDS011;37338;47.426;19.204;2024-03-17T12:01:30;5.03;;;0.63;;
51266;SDS011;37338;47.426;19.204;2024-03-17T12:03:55;1.95;;;0.40;;
51266;SDS011;37338;47.426;19.204;2024-03-17T12:06:22;2.25;;;0.47;;
51266;SDS011;37338;47.426;19.204;2024-03-17T12:08:47;2.40;;;0.55;;
51266;SDS011;37338;47.426;19.204;2024-03-17T12:11:22;2.50;;;0.93;;
51266;SDS011;37338;47.426;19.204;2024-03-17T12:13:48;3.28;;;0.65;;
51266;SDS011;37338;47.426;19.204;2024-03-17T12:16:13;3.08;;;0.77;;
51266;SDS011;37338;47.426;19.204;2024-03-17T12:18:39;4.53;;;0.88;;
51266;SDS011;37338;47.426;19.204;2024-03-17T12:21:11;2.70;;;0.57;;
51266;SDS011;37338;47.426;19.204;2024-03-17T12:23:39;3.13;;;0.52;;
51266;SDS011;37338;47.426;19.204;2024-03-17T12:26:05;4.20;;;0.60;;
51266;SDS011;37338;47.426;19.204;2024-03-17T12:28:40;2.00;;;0.40;;
51266;SDS011;37338;47.426;19.204;2024-03-17T12:31:07;4.70;;;1.48;;
51266;SDS011;37338;47.426;19.204;2024-03-17T12:33:32;4.22;;;0.80;;
51266;SDS011;37338;47.426;19.204;2024-03-17T12:35:58;2.72;;;0.40;;
51266;SDS011;37338;47.426;19.204;2024-03-17T12:38:28;2.42;;;0.50;;
51266;SDS011;37338;47.426;19.204;2024-03-17T12:40:53;2.53;;;0.77;;
51266;SDS011;37338;47.426;19.204;2024-03-17T12:43:19;1.52;;;0.40;;
51266;SDS011;37338;47.426;19.204;2024-03-17T12:45:44;2.42;;;0.57;;
51266;SDS011;37338;47.426;19.204;2024-03-17T12:48:13;1.90;;;0.60;;
51266;SDS011;37338;47.426;19.204;2024-03-17T12:50:44;1.98;;;0.50;;
51266;SDS011;37338;47.426;19.204;2024-03-17T12:53:13;5.82;;;0.50;;
51266;SDS011;37338;47.426;19.204;2024-03-17T12:55:41;1.67;;;0.40;;
51266;SDS011;37338;47.426;19.204;2024-03-17T12:58:25;2.28;;;0.40;;
51266;SDS011;37338;47.426;19.204;2024-03-17T13:01:25;5.72;;;0.38;;
51266;SDS011;37338;47.426;19.204;2024-03-17T13:03:51;2.53;;;0.40;;
51266;SDS011;37338;47.426;19.204;2024-03-17T13:06:23;1.75;;;0.35;;
51266;SDS011;37338;47.426;19.204;2024-03-17T13:08:51;3.13;;;0.38;;
51266;SDS011;37338;47.426;19.204;2024-03-17T13:11:16;1.77;;;0.52;;
51266;SDS011;37338;47.426;19.204;2024-03-17T13:13:41;3.28;;;0.40;;
51266;SDS011;37338;47.426;19.204;2024-03-17T13:16:07;0.90;;;0.30;;
51266;SDS011;37338;47.426;19.204;2024-03-17T13:18:34;3.35;;;0.40;;
51266;SDS011;37338;47.426;19.204;2024-03-17T13:20:59;2.65;;;0.30;;
51266;SDS011;37338;47.426;19.204;2024-03-17T13:23:26;4.53;;;0.40;;
51266;SDS011;37338;47.426;19.204;2024-03-17T13:25:51;1.45;;;0.30;;
51266;SDS011;37338;47.426;19.204;2024-03-17T13:28:16;3.83;;;0.30;;
51266;SDS011;37338;47.426;19.204;2024-03-17T13:30:42;2.22;;;0.30;;
51266;SDS011;37338;47.426;19.204;2024-03-17T13:33:08;2.75;;;0.50;;
51266;SDS011;37338;47.426;19.204;2024-03-17T13:35:34;2.88;;;0.45;;
51266;SDS011;37338;47.426;19.204;2024-03-17T13:38:03;5.45;;;0.50;;
51266;SDS011;37338;47.426;19.204;2024-03-17T13:40:29;1.77;;;0.50;;
51266;SDS011;37338;47.426;19.204;2024-03-17T13:42:55;1.50;;;0.50;;
51266;SDS011;37338;47.426;19.204;2024-03-17T13:45:21;2.90;;;0.40;;
51266;SDS011;37338;47.426;19.204;2024-03-17T13:47:49;1.75;;;0.32;;
51266;SDS011;37338;47.426;19.204;2024-03-17T13:50:17;2.00;;;0.68;;
51266;SDS011;37338;47.426;19.204;2024-03-17T13:52:43;3.55;;;0.50;;
51266;SDS011;37338;47.426;19.204;2024-03-17T13:55:13;2.47;;;0.43;;
51266;SDS011;37338;47.426;19.204;2024-03-17T13:57:39;1.75;;;0.13;;
51266;SDS011;37338;47.426;19.204;2024-03-17T14:00:05;1.05;;;0.22;;
51266;SDS011;37338;47.426;19.204;2024-03-17T14:02:32;1.08;;;0.30;;
51266;SDS011;37338;47.426;19.204;2024-03-17T14:04:58;1.58;;;0.32;;
51266;SDS011;37338;47.426;19.204;2024-03-17T14:07:23;1.85;;;0.52;;
51266;SDS011;37338;47.426;19.204;2024-03-17T14:09:49;1.75;;;0.35;;
51266;SDS011;37338;47.426;19.204;2024-03-17T14:12:14;3.40;;;0.82;;
51266;SDS011;37338;47.426;19.204;2024-03-17T14:14:39;1.60;;;0.30;;
51266;SDS011;37338;47.426;19.204;2024-03-17T14:17:05;2.10;;;0.30;;
51266;SDS011;37338;47.426;19.204;2024-03-17T14:19:31;5.20;;;0.70;;
51266;SDS011;37338;47.426;19.204;2024-03-17T14:21:56;2.75;;;0.52;;
51266;SDS011;37338;47.426;19.204;2024-03-17T14:24:22;2.90;;;0.35;;
51266;SDS011;37338;47.426;19.204;2024-03-17T14:26:48;2.22;;;0.65;;
51266;SDS011;37338;47.426;19.204;2024-03-17T14:29:13;2.63;;;0.70;;
51266;SDS011;37338;47.426;19.204;2024-03-17T14:31:39;4.75;;;0.40;;
51266;SDS011;37338;47.426;19.204;2024-03-17T14:34:08;1.70;;;0.47;;
51266;SDS011;37338;47.426;19.204;2024-03-17T14:36:34;5.40;;;0.50;;
51266;SDS011;37338;47.426;19.204;2024-03-17T14:38:59;1.95;;;0.63;;
51266;SDS011;37338;47.426;19.204;2024-03-17T14:41:29;2.70;;;0.40;;
51266;SDS011;37338;47.426;19.204;2024-03-17T14:43:55;2.47;;;1.00;;
51266;SDS011;37338;47.426;19.204;2024-03-17T14:46:20;1.98;;;0.38;;
51266;SDS011;37338;47.426;19.204;2024-03-17T14:48:46;2.88;;;0.68;;
51266;SDS011;37338;47.426;19.204;2024-03-17T14:51:12;5.50;;;0.43;;
51266;SDS011;37338;47.426;19.204;2024-03-17T14:53:38;4.53;;;0.98;;
51266;SDS011;37338;47.426;19.204;2024-03-17T14:56:07;3.90;;;0.40;;
51266;SDS011;37338;47.426;19.204;2024-03-17T14:58:33;3.30;;;0.90;;
51266;SDS011;37338;47.426;19.204;2024-03-17T15:00:59;6.47;;;1.85;;
51266;SDS011;37338;47.426;19.204;2024-03-17T15:03:24;2.22;;;0.60;;
51266;SDS011;37338;47.426;19.204;2024-03-17T15:05:49;3.83;;;0.65;;